sensor_id;sensor_type;location;lat;lon;timestamp;pressure;altitude;pressure_sealevel;temperature;humidity
83697;BME280;73677;54.530;18.484;2023-11-19T00:00:34;101576.16;;;-0.45;94.75
83697;BME280;73677;54.530;18.484;2023-11-19T00:03:27;101642.66;;;-0.04;94.60
83697;BME280;73677;54.530;18.484;2023-11-19T00:05:56;101642.84;;;-0.06;94.40
83697;BME280;73677;54.530;18.484;2023-11-19T00:08:27;101639.53;;;-0.09;94.23
83697;BME280;73677;54.530;18.484;2023-11-19T00:10:56;101638.13;;;-0.04;93.77
83697;BME280;73677;54.530;18.484;2023-11-19T00:13:25;101635.72;;;0.03;93.95
83697;BME280;73677;54.530;18.484;2023-11-19T00:15:56;101640.16;;;0.04;93.89
83697;BME280;73677;54.530;18.484;2023-11-19T00:18:27;101573.06;;;-0.31;94.07
83697;BME280;73677;54.530;18.484;2023-11-19T00:20:56;101620.94;;;0.07;93.70
83697;BME280;73677;54.530;18.484;2023-11-19T00:23:25;101583.06;;;-0.12;93.36
83697;BME280;73677;54.530;18.484;2023-11-19T00:25:54;101625.50;;;0.16;93.29
83697;BME280;73677;54.530;18.484;2023-11-19T00:28:23;101623.09;;;0.13;92.81
83697;BME280;73677;54.530;18.484;2023-11-19T00:30:51;101627.50;;;0.14;92.97
83697;BME280;73677;54.530;18.484;2023-11-19T00:33:22;101630.09;;;0.16;92.78
83697;BME280;73677;54.530;18.484;2023-11-19T00:35:51;101589.63;;;-0.05;92.78
83697;BME280;73677;54.530;18.484;2023-11-19T00:38:19;101618.00;;;0.20;92.52
83697;BME280;73677;54.530;18.484;2023-11-19T00:40:48;101628.50;;;0.23;92.52
83697;BME280;73677;54.530;18.484;2023-11-19T00:43:18;101624.56;;;0.46;92.61
83697;BME280;73677;54.530;18.484;2023-11-19T00:45:49;101624.44;;;0.57;91.38
83697;BME280;73677;54.530;18.484;2023-11-19T00:48:23;101622.28;;;0.51;91.03
83697;BME280;73677;54.530;18.484;2023-11-19T00:50:52;101617.00;;;0.50;92.09
83697;BME280;73677;54.530;18.484;2023-11-19T00:53:22;101594.09;;;0.34;91.67
83697;BME280;73677;54.530;18.484;2023-11-19T00:55:51;101612.31;;;0.52;92.00
83697;BME280;73677;54.530;18.484;2023-11-19T00:58:20;101617.13;;;0.58;92.64
83697;BME280;73677;54.530;18.484;2023-11-19T01:00:49;101573.44;;;0.43;91.93
83697;BME280;73677;54.530;18.484;2023-11-19T01:03:22;101595.22;;;0.61;91.65
83697;BME280;73677;54.530;18.484;2023-11-19T01:05:52;101601.50;;;0.71;90.87
83697;BME280;73677;54.530;18.484;2023-11-19T01:08:21;101599.06;;;0.58;91.04
83697;BME280;73677;54.530;18.484;2023-11-19T01:10:51;101597.09;;;0.60;91.20
83697;BME280;73677;54.530;18.484;2023-11-19T01:13:21;101595.38;;;0.59;90.64
83697;BME280;73677;54.530;18.484;2023-11-19T01:15:50;101588.41;;;0.66;91.25
83697;BME280;73677;54.530;18.484;2023-11-19T01:18:19;101565.19;;;0.64;91.65
83697;BME280;73677;54.530;18.484;2023-11-19T01:20:52;101523.22;;;0.40;90.98
83697;BME280;73677;54.530;18.484;2023-11-19T01:23:24;101561.91;;;0.70;90.35
83697;BME280;73677;54.530;18.484;2023-11-19T01:25:53;101580.41;;;0.74;90.94
83697;BME280;73677;54.530;18.484;2023-11-19T01:28:22;101571.88;;;0.69;90.91
83697;BME280;73677;54.530;18.484;2023-11-19T01:30:56;101557.31;;;0.80;90.63
83697;BME280;73677;54.530;18.484;2023-11-19T01:33:26;101490.34;;;0.35;90.85
83697;BME280;73677;54.530;18.484;2023-11-19T01:35:59;101553.63;;;0.81;90.69
83697;BME280;73677;54.530;18.484;2023-11-19T01:38:28;101563.16;;;0.85;90.79
83697;BME280;73677;54.530;18.484;2023-11-19T01:40:58;101557.88;;;0.93;90.68
83697;BME280;73677;54.530;18.484;2023-11-19T01:43:36;101557.03;;;0.93;90.56
83697;BME280;73677;54.530;18.484;2023-11-19T01:46:06;101505.81;;;0.72;90.00
83697;BME280;73677;54.530;18.484;2023-11-19T01:48:41;101537.63;;;0.97;90.57
83697;BME280;73677;54.530;18.484;2023-11-19T01:51:12;101530.63;;;0.95;90.37
83697;BME280;73677;54.530;18.484;2023-11-19T01:53:46;101520.22;;;1.00;90.54
83697;BME280;73677;54.530;18.484;2023-11-19T01:56:16;101522.66;;;1.03;90.55
83697;BME280;73677;54.530;18.484;2023-11-19T01:58:45;101517.81;;;0.97;91.43
83697;BME280;73677;54.530;18.484;2023-11-19T02:01:19;101517.81;;;0.97;90.41
83697;BME280;73677;54.530;18.484;2023-11-19T02:03:49;101399.59;;;0.23;90.05
83697;BME280;73677;54.530;18.484;2023-11-19T02:06:21;101513.22;;;1.07;90.41
83697;BME280;73677;54.530;18.484;2023-11-19T02:08:52;101494.19;;;0.99;90.62
83697;BME280;73677;54.530;18.484;2023-11-19T02:11:22;101478.81;;;0.90;89.80
83697;BME280;73677;54.530;18.484;2023-11-19T02:13:57;101486.66;;;0.93;90.29
83697;BME280;73677;54.530;18.484;2023-11-19T02:16:27;101481.25;;;0.93;90.50
83697;BME280;73677;54.530;18.484;2023-11-19T02:18:57;101485.25;;;0.89;90.46
83697;BME280;73677;54.530;18.484;2023-11-19T02:21:31;101474.84;;;0.84;90.59
83697;BME280;73677;54.530;18.484;2023-11-19T02:24:07;101452.09;;;0.77;90.79
83697;BME280;73677;54.530;18.484;2023-11-19T02:26:39;101454.91;;;0.85;89.69
83697;BME280;73677;54.530;18.484;2023-11-19T02:29:12;101443.69;;;0.80;89.31
83697;BME280;73677;54.530;18.484;2023-11-19T02:31:44;101445.28;;;0.73;89.57
83697;BME280;73677;54.530;18.484;2023-11-19T02:34:14;101440.41;;;0.76;90.02
83697;BME280;73677;54.530;18.484;2023-11-19T02:36:43;101441.13;;;0.78;90.54
83697;BME280;73677;54.530;18.484;2023-11-19T02:39:15;101443.41;;;0.73;89.48
83697;BME280;73677;54.530;18.484;2023-11-19T02:41:48;101426.63;;;0.70;90.14
83697;BME280;73677;54.530;18.484;2023-11-19T02:44:22;101415.00;;;0.60;89.14
83697;BME280;73677;54.530;18.484;2023-11-19T02:46:53;101421.34;;;0.68;90.26
83697;BME280;73677;54.530;18.484;2023-11-19T02:49:24;101415.25;;;0.66;87.91
83697;BME280;73677;54.530;18.484;2023-11-19T02:51:55;101407.81;;;0.68;87.80
83697;BME280;73677;54.530;18.484;2023-11-19T02:54:27;101407.28;;;0.65;87.70
83697;BME280;73677;54.530;18.484;2023-11-19T02:56:56;101401.88;;;0.65;87.77
83697;BME280;73677;54.530;18.484;2023-11-19T02:59:28;101381.66;;;0.59;86.59
83697;BME280;73677;54.530;18.484;2023-11-19T03:02:06;101395.31;;;0.67;86.27
83697;BME280;73677;54.530;18.484;2023-11-19T03:04:39;101385.78;;;0.63;85.47
83697;BME280;73677;54.530;18.484;2023-11-19T03:07:10;101388.88;;;0.68;86.33
83697;BME280;73677;54.530;18.484;2023-11-19T03:09:39;101389.06;;;0.67;86.31
83697;BME280;73677;54.530;18.484;2023-11-19T03:12:11;101380.38;;;0.63;85.20
83697;BME280;73677;54.530;18.484;2023-11-19T03:14:46;101311.53;;;0.21;85.52
83697;BME280;73677;54.530;18.484;2023-11-19T03:17:18;101342.03;;;0.40;85.11
83697;BME280;73677;54.530;18.484;2023-11-19T03:19:47;101378.13;;;0.59;85.61
83697;BME280;73677;54.530;18.484;2023-11-19T03:22:16;101379.81;;;0.60;85.33
83697;BME280;73677;54.530;18.484;2023-11-19T03:24:46;101367.00;;;0.62;86.30
83697;BME280;73677;54.530;18.484;2023-11-19T03:27:14;101362.34;;;0.54;85.12
83697;BME280;73677;54.530;18.484;2023-11-19T03:29:45;101363.09;;;0.47;85.84
83697;BME280;73677;54.530;18.484;2023-11-19T03:32:14;101359.38;;;0.48;86.13
83697;BME280;73677;54.530;18.484;2023-11-19T03:34:44;101345.47;;;0.33;85.53
83697;BME280;73677;54.530;18.484;2023-11-19T03:37:16;101330.09;;;0.33;85.64
83697;BME280;73677;54.530;18.484;2023-11-19T03:39:47;101324.03;;;0.22;85.63
83697;BME280;73677;54.530;18.484;2023-11-19T03:42:19;101332.53;;;0.27;86.43
83697;BME280;73677;54.530;18.484;2023-11-19T03:44:52;101323.63;;;0.17;86.62
83697;BME280;73677;54.530;18.484;2023-11-19T03:47:21;101313.84;;;0.16;86.89
83697;BME280;73677;54.530;18.484;2023-11-19T03:49:51;101206.34;;;-0.47;86.71
83697;BME280;73677;54.530;18.484;2023-11-19T03:52:21;101299.47;;;0.06;87.18
83697;BME280;73677;54.530;18.484;2023-11-19T03:54:50;101296.63;;;0.07;86.84
83697;BME280;73677;54.530;18.484;2023-11-19T03:57:25;101293.91;;;0.07;86.77
83697;BME280;73677;54.530;18.484;2023-11-19T03:59:56;101291.59;;;0.22;86.43
83697;BME280;73677;54.530;18.484;2023-11-19T04:02:26;101297.75;;;0.14;86.56
83697;BME280;73677;54.530;18.484;2023-11-19T04:04:56;101284.41;;;0.03;86.73
83697;BME280;73677;54.530;18.484;2023-11-19T04:07:25;101281.81;;;0.11;86.54
83697;BME280;73677;54.530;18.484;2023-11-19T04:09:57;101271.31;;;0.08;87.02
83697;BME280;73677;54.530;18.484;2023-11-19T04:12:26;101264.34;;;0.06;86.90
83697;BME280;73677;54.530;18.484;2023-11-19T04:14:57;101259.25;;;0.03;86.72
83697;BME280;73677;54.530;18.484;2023-11-19T04:17:28;101207.72;;;-0.23;86.42
83697;BME280;73677;54.530;18.484;2023-11-19T04:19:58;101242.56;;;0.07;86.54
83697;BME280;73677;54.530;18.484;2023-11-19T04:22:28;101222.13;;;-0.05;86.24
83697;BME280;73677;54.530;18.484;2023-11-19T04:24:57;101231.63;;;0.09;86.05
83697;BME280;73677;54.530;18.484;2023-11-19T04:27:26;101221.50;;;0.11;86.02
83697;BME280;73677;54.530;18.484;2023-11-19T04:29:57;101212.56;;;0.10;86.10
83697;BME280;73677;54.530;18.484;2023-11-19T04:32:30;101210.00;;;0.09;85.96
83697;BME280;73677;54.530;18.484;2023-11-19T04:34:59;101205.28;;;0.11;86.33
83697;BME280;73677;54.530;18.484;2023-11-19T04:37:28;101209.00;;;0.10;85.84
83697;BME280;73677;54.530;18.484;2023-11-19T04:39:58;101199.88;;;0.11;86.11
83697;BME280;73677;54.530;18.484;2023-11-19T04:42:27;101191.94;;;0.09;85.44
83697;BME280;73677;54.530;18.484;2023-11-19T04:44:58;101198.03;;;0.11;85.34
83697;BME280;73677;54.530;18.484;2023-11-19T04:47:27;101189.78;;;0.13;85.40
83697;BME280;73677;54.530;18.484;2023-11-19T04:49:56;101179.28;;;0.10;85.83
83697;BME280;73677;54.530;18.484;2023-11-19T04:52:26;101179.81;;;0.13;85.17
83697;BME280;73677;54.530;18.484;2023-11-19T04:54:56;101137.19;;;-0.20;85.44
83697;BME280;73677;54.530;18.484;2023-11-19T04:57:25;101160.97;;;0.04;84.91
83697;BME280;73677;54.530;18.484;2023-11-19T04:59:55;101170.84;;;0.13;85.07
83697;BME280;73677;54.530;18.484;2023-11-19T05:02:27;101157.41;;;0.03;84.87
83697;BME280;73677;54.530;18.484;2023-11-19T05:04:56;101168.94;;;0.05;84.99
83697;BME280;73677;54.530;18.484;2023-11-19T05:07:26;101170.78;;;0.05;85.17
83697;BME280;73677;54.530;18.484;2023-11-19T05:09:55;101183.84;;;0.09;85.15
83697;BME280;73677;54.530;18.484;2023-11-19T05:12:24;101180.00;;;0.02;85.66
83697;BME280;73677;54.530;18.484;2023-11-19T05:14:54;101186.59;;;-0.01;85.50
83697;BME280;73677;54.530;18.484;2023-11-19T05:17:26;101180.47;;;-0.03;85.38
83697;BME280;73677;54.530;18.484;2023-11-19T05:19:55;101168.09;;;-0.05;84.61
83697;BME280;73677;54.530;18.484;2023-11-19T05:22:24;101172.09;;;-0.09;85.08
83697;BME280;73677;54.530;18.484;2023-11-19T05:24:55;101164.31;;;-0.12;85.18
83697;BME280;73677;54.530;18.484;2023-11-19T05:27:24;101152.84;;;-0.24;85.11
83697;BME280;73677;54.530;18.484;2023-11-19T05:29:55;101164.91;;;-0.18;84.67
83697;BME280;73677;54.530;18.484;2023-11-19T05:32:24;101158.34;;;-0.16;84.70
83697;BME280;73677;54.530;18.484;2023-11-19T05:34:57;101150.00;;;-0.22;85.13
83697;BME280;73677;54.530;18.484;2023-11-19T05:37:27;101109.88;;;-0.45;84.26
83697;BME280;73677;54.530;18.484;2023-11-19T05:39:56;101083.69;;;-0.71;85.10
83697;BME280;73677;54.530;18.484;2023-11-19T05:42:27;101142.94;;;-0.33;84.97
83697;BME280;73677;54.530;18.484;2023-11-19T05:44:58;101063.72;;;-0.88;85.57
83697;BME280;73677;54.530;18.484;2023-11-19T05:47:27;101099.69;;;-0.60;85.42
83697;BME280;73677;54.530;18.484;2023-11-19T05:49:58;101139.66;;;-0.36;85.12
83697;BME280;73677;54.530;18.484;2023-11-19T05:52:30;100991.56;;;-1.23;85.22
83697;BME280;73677;54.530;18.484;2023-11-19T05:55:02;101140.28;;;-0.43;85.41
83697;BME280;73677;54.530;18.484;2023-11-19T05:57:37;101080.16;;;-0.81;86.04
83697;BME280;73677;54.530;18.484;2023-11-19T06:00:11;101112.34;;;-0.61;85.96
83697;BME280;73677;54.530;18.484;2023-11-19T06:02:44;101110.50;;;-0.60;86.14
83697;BME280;73677;54.530;18.484;2023-11-19T06:05:17;101118.47;;;-0.59;86.64
83697;BME280;73677;54.530;18.484;2023-11-19T06:07:46;101043.63;;;-1.13;86.80
83697;BME280;73677;54.530;18.484;2023-11-19T06:10:23;101040.03;;;-1.04;87.01
83697;BME280;73677;54.530;18.484;2023-11-19T06:12:59;101065.69;;;-0.80;86.97
83697;BME280;73677;54.530;18.484;2023-11-19T06:15:33;101097.31;;;-0.63;87.23
83697;BME280;73677;54.530;18.484;2023-11-19T06:18:06;100933.78;;;-1.67;87.33
83697;BME280;73677;54.530;18.484;2023-11-19T06:20:41;101093.19;;;-0.67;87.41
83697;BME280;73677;54.530;18.484;2023-11-19T06:23:12;101075.66;;;-0.91;87.78
83697;BME280;73677;54.530;18.484;2023-11-19T06:25:45;101067.84;;;-0.84;87.78
83697;BME280;73677;54.530;18.484;2023-11-19T06:28:15;101041.88;;;-1.04;88.06
83697;BME280;73677;54.530;18.484;2023-11-19T06:30:45;101098.44;;;-0.66;88.24
83697;BME280;73677;54.530;18.484;2023-11-19T06:33:16;101085.06;;;-0.67;87.89
83697;BME280;73677;54.530;18.484;2023-11-19T06:35:50;101073.91;;;-0.82;88.46
83697;BME280;73677;54.530;18.484;2023-11-19T06:38:19;101089.78;;;-0.69;87.99
83697;BME280;73677;54.530;18.484;2023-11-19T06:40:48;101014.78;;;-1.03;87.43
83697;BME280;73677;54.530;18.484;2023-11-19T06:43:21;101072.25;;;-0.56;86.73
83697;BME280;73677;54.530;18.484;2023-11-19T06:45:50;100932.41;;;-1.34;86.58
83697;BME280;73677;54.530;18.484;2023-11-19T06:48:21;101038.06;;;-0.65;86.14
83697;BME280;73677;54.530;18.484;2023-11-19T06:50:54;100980.97;;;-0.97;85.65
83697;BME280;73677;54.530;18.484;2023-11-19T06:53:24;100915.66;;;-1.28;85.28
83697;BME280;73677;54.530;18.484;2023-11-19T06:55:57;101069.84;;;-0.31;85.28
83697;BME280;73677;54.530;18.484;2023-11-19T06:58:29;101056.06;;;-0.28;84.30
83697;BME280;73677;54.530;18.484;2023-11-19T07:00:59;101064.41;;;-0.22;84.65
83697;BME280;73677;54.530;18.484;2023-11-19T07:03:31;101055.59;;;-0.24;84.20
83697;BME280;73677;54.530;18.484;2023-11-19T07:06:05;101050.28;;;-0.16;84.10
83697;BME280;73677;54.530;18.484;2023-11-19T07:08:34;101047.44;;;-0.14;82.86
83697;BME280;73677;54.530;18.484;2023-11-19T07:11:04;101009.34;;;-0.38;82.88
83697;BME280;73677;54.530;18.484;2023-11-19T07:13:37;101040.97;;;-0.04;82.35
83697;BME280;73677;54.530;18.484;2023-11-19T07:16:09;101041.06;;;0.05;82.43
83697;BME280;73677;54.530;18.484;2023-11-19T07:18:38;101033.97;;;0.04;82.39
83697;BME280;73677;54.530;18.484;2023-11-19T07:21:08;101026.38;;;0.07;81.91
83697;BME280;73677;54.530;18.484;2023-11-19T07:23:38;101020.91;;;0.17;81.96
83697;BME280;73677;54.530;18.484;2023-11-19T07:26:07;100999.44;;;0.15;81.50
83697;BME280;73677;54.530;18.484;2023-11-19T07:28:37;101005.25;;;0.20;80.84
83697;BME280;73677;54.530;18.484;2023-11-19T07:31:09;100991.25;;;0.25;80.52
83697;BME280;73677;54.530;18.484;2023-11-19T07:33:39;101000.03;;;0.27;80.67
83697;BME280;73677;54.530;18.484;2023-11-19T07:36:12;100989.78;;;0.30;80.72
83697;BME280;73677;54.530;18.484;2023-11-19T07:38:41;100966.53;;;0.20;80.17
83697;BME280;73677;54.530;18.484;2023-11-19T07:41:16;100994.63;;;0.45;80.19
83697;BME280;73677;54.530;18.484;2023-11-19T07:43:45;100988.44;;;0.52;79.87
83697;BME280;73677;54.530;18.484;2023-11-19T07:46:16;100985.25;;;0.57;79.87
83697;BME280;73677;54.530;18.484;2023-11-19T07:48:47;100967.47;;;0.54;78.26
83697;BME280;73677;54.530;18.484;2023-11-19T07:51:18;100942.72;;;0.41;79.69
83697;BME280;73677;54.530;18.484;2023-11-19T07:53:47;100965.88;;;0.69;78.65
83697;BME280;73677;54.530;18.484;2023-11-19T07:56:17;100925.09;;;0.37;79.19
83697;BME280;73677;54.530;18.484;2023-11-19T07:58:47;100961.75;;;0.57;78.99
83697;BME280;73677;54.530;18.484;2023-11-19T08:01:16;100955.97;;;0.52;79.49
83697;BME280;73677;54.530;18.484;2023-11-19T08:03:45;100952.09;;;0.55;79.62
83697;BME280;73677;54.530;18.484;2023-11-19T08:06:23;100936.72;;;0.55;79.42
83697;BME280;73677;54.530;18.484;2023-11-19T08:08:55;100947.06;;;0.60;79.30
83697;BME280;73677;54.530;18.484;2023-11-19T08:11:25;100947.22;;;0.58;79.41
83697;BME280;73677;54.530;18.484;2023-11-19T08:13:56;100943.34;;;0.61;79.55
83697;BME280;73677;54.530;18.484;2023-11-19T08:16:26;100935.44;;;0.67;79.59
83697;BME280;73677;54.530;18.484;2023-11-19T08:18:55;100929.94;;;0.77;79.30
83697;BME280;73677;54.530;18.484;2023-11-19T08:21:27;100929.59;;;0.54;79.67
83697;BME280;73677;54.530;18.484;2023-11-19T08:23:56;100932.28;;;0.46;79.96
83697;BME280;73677;54.530;18.484;2023-11-19T08:26:25;100931.91;;;0.41;80.59
83697;BME280;73677;54.530;18.484;2023-11-19T08:28:54;100937.13;;;0.42;81.25
83697;BME280;73677;54.530;18.484;2023-11-19T08:31:28;100918.78;;;0.54;80.97
83697;BME280;73677;54.530;18.484;2023-11-19T08:33:58;100906.94;;;0.47;81.04
83697;BME280;73677;54.530;18.484;2023-11-19T08:36:29;100824.34;;;0.01;81.00
83697;BME280;73677;54.530;18.484;2023-11-19T08:38:59;100906.38;;;0.43;80.27
83697;BME280;73677;54.530;18.484;2023-11-19T08:41:28;100714.84;;;-0.63;80.27
83697;BME280;73677;54.530;18.484;2023-11-19T08:43:58;100800.13;;;-0.09;80.31
83697;BME280;73677;54.530;18.484;2023-11-19T08:46:28;100877.91;;;0.57;80.66
83697;BME280;73677;54.530;18.484;2023-11-19T08:48:59;100885.66;;;0.52;80.44
83697;BME280;73677;54.530;18.484;2023-11-19T08:51:35;100732.22;;;-0.65;79.95
83697;BME280;73677;54.530;18.484;2023-11-19T08:54:07;100871.53;;;0.66;79.80
83697;BME280;73677;54.530;18.484;2023-11-19T08:56:37;100791.59;;;0.30;79.86
83697;BME280;73677;54.530;18.484;2023-11-19T08:59:07;100865.16;;;0.75;79.76
83697;BME280;73677;54.530;18.484;2023-11-19T09:01:36;100861.66;;;0.83;79.06
83697;BME280;73677;54.530;18.484;2023-11-19T09:04:05;100858.25;;;0.89;79.12
83697;BME280;73677;54.530;18.484;2023-11-19T09:06:38;100853.34;;;0.84;78.79
83697;BME280;73677;54.530;18.484;2023-11-19T09:09:08;100850.69;;;0.93;78.03
83697;BME280;73677;54.530;18.484;2023-11-19T09:11:39;100857.13;;;1.00;78.35
83697;BME280;73677;54.530;18.484;2023-11-19T09:14:09;100848.38;;;1.14;77.47
83697;BME280;73677;54.530;18.484;2023-11-19T09:16:41;100844.31;;;1.18;77.48
83697;BME280;73677;54.530;18.484;2023-11-19T09:19:10;100841.50;;;1.52;76.67
83697;BME280;73677;54.530;18.484;2023-11-19T09:21:40;100835.91;;;1.94;75.65
83697;BME280;73677;54.530;18.484;2023-11-19T09:24:09;100833.03;;;1.79;75.02
83697;BME280;73677;54.530;18.484;2023-11-19T09:26:41;100825.59;;;1.89;74.51
83697;BME280;73677;54.530;18.484;2023-11-19T09:29:10;100822.03;;;1.97;73.93
83697;BME280;73677;54.530;18.484;2023-11-19T09:31:40;100818.16;;;1.83;73.54
83697;BME280;73677;54.530;18.484;2023-11-19T09:34:08;100814.59;;;1.83;74.27
83697;BME280;73677;54.530;18.484;2023-11-19T09:36:39;100798.16;;;1.84;73.27
83697;BME280;73677;54.530;18.484;2023-11-19T09:39:11;100816.25;;;2.08;72.19
83697;BME280;73677;54.530;18.484;2023-11-19T09:41:42;100797.66;;;1.81;72.63
83697;BME280;73677;54.530;18.484;2023-11-19T09:44:12;100800.38;;;1.81;72.71
83697;BME280;73677;54.530;18.484;2023-11-19T09:46:42;100793.06;;;1.73;71.63
83697;BME280;73677;54.530;18.484;2023-11-19T09:49:11;100795.44;;;1.92;73.15
83697;BME280;73677;54.530;18.484;2023-11-19T09:51:43;100792.25;;;1.64;72.80
83697;BME280;73677;54.530;18.484;2023-11-19T09:54:11;100790.72;;;1.54;73.01
83697;BME280;73677;54.530;18.484;2023-11-19T09:56:41;100802.56;;;1.53;73.83
83697;BME280;73677;54.530;18.484;2023-11-19T09:59:10;100791.88;;;1.27;75.49
83697;BME280;73677;54.530;18.484;2023-11-19T10:01:41;100781.41;;;1.32;75.98
83697;BME280;73677;54.530;18.484;2023-11-19T10:04:10;100781.59;;;1.55;76.04
83697;BME280;73677;54.530;18.484;2023-11-19T10:06:43;100792.88;;;1.26;76.30
83697;BME280;73677;54.530;18.484;2023-11-19T10:09:12;100786.81;;;1.32;76.89
83697;BME280;73677;54.530;18.484;2023-11-19T10:11:42;100777.69;;;1.49;76.36
83697;BME280;73677;54.530;18.484;2023-11-19T10:14:11;100773.63;;;1.69;75.96
83697;BME280;73677;54.530;18.484;2023-11-19T10:16:43;100762.78;;;1.53;77.02
83697;BME280;73677;54.530;18.484;2023-11-19T10:19:19;100762.09;;;1.59;76.23
83697;BME280;73677;54.530;18.484;2023-11-19T10:21:50;100728.09;;;1.57;76.77
83697;BME280;73677;54.530;18.484;2023-11-19T10:24:31;100744.13;;;1.83;76.63
83697;BME280;73677;54.530;18.484;2023-11-19T10:27:03;100740.59;;;1.74;77.55
83697;BME280;73677;54.530;18.484;2023-11-19T10:29:37;100736.53;;;1.70;77.53
83697;BME280;73677;54.530;18.484;2023-11-19T10:32:09;100720.66;;;1.51;77.76
83697;BME280;73677;54.530;18.484;2023-11-19T10:35:06;100727.06;;;1.42;78.73
83697;BME280;73677;54.530;18.484;2023-11-19T10:37:39;100704.38;;;1.10;78.43
83697;BME280;73677;54.530;18.484;2023-11-19T10:40:09;100721.81;;;1.32;79.14
83697;BME280;73677;54.530;18.484;2023-11-19T10:42:38;100710.97;;;1.64;78.27
83697;BME280;73677;54.530;18.484;2023-11-19T10:45:22;100708.06;;;1.74;78.09
83697;BME280;73677;54.530;18.484;2023-11-19T10:47:54;100701.66;;;1.67;77.33
83697;BME280;73677;54.530;18.484;2023-11-19T10:50:24;100659.22;;;1.11;78.25
83697;BME280;73677;54.530;18.484;2023-11-19T10:52:57;100694.56;;;1.50;79.58
83697;BME280;73677;54.530;18.484;2023-11-19T10:55:28;100689.16;;;1.50;78.92
83697;BME280;73677;54.530;18.484;2023-11-19T10:58:04;100615.59;;;0.81;78.69
83697;BME280;73677;54.530;18.484;2023-11-19T11:00:45;100689.66;;;1.21;79.94
83697;BME280;73677;54.530;18.484;2023-11-19T11:03:19;100674.28;;;1.21;79.13
83697;BME280;73677;54.530;18.484;2023-11-19T11:05:51;100673.09;;;1.40;79.86
83697;BME280;73677;54.530;18.484;2023-11-19T11:08:21;100676.47;;;1.50;78.93
83697;BME280;73677;54.530;18.484;2023-11-19T11:10:53;100648.41;;;1.19;79.57
83697;BME280;73677;54.530;18.484;2023-11-19T11:13:25;100667.47;;;1.50;79.39
83697;BME280;73677;54.530;18.484;2023-11-19T11:15:57;100655.66;;;1.26;78.63
83697;BME280;73677;54.530;18.484;2023-11-19T11:18:28;100658.19;;;1.36;79.11
83697;BME280;73677;54.530;18.484;2023-11-19T11:21:00;100650.50;;;1.64;78.99
83697;BME280;73677;54.530;18.484;2023-11-19T11:27:07;100635.69;;;1.27;78.83
83697;BME280;73677;54.530;18.484;2023-11-19T11:29:51;100602.72;;;1.16;79.27
83697;BME280;73677;54.530;18.484;2023-11-19T11:32:33;100627.94;;;1.24;78.93
83697;BME280;73677;54.530;18.484;2023-11-19T11:35:19;100621.69;;;1.08;79.54
83697;BME280;73677;54.530;18.484;2023-11-19T11:38:00;100610.16;;;1.22;79.14
83697;BME280;73677;54.530;18.484;2023-11-19T11:40:31;100624.91;;;1.19;79.04
83697;BME280;73677;54.530;18.484;2023-11-19T11:43:04;100601.03;;;1.15;80.18
83697;BME280;73677;54.530;18.484;2023-11-19T11:45:54;100612.53;;;1.25;79.79
83697;BME280;73677;54.530;18.484;2023-11-19T11:48:23;100593.59;;;1.09;80.51
83697;BME280;73677;54.530;18.484;2023-11-19T11:50:57;100590.38;;;1.13;80.16
83697;BME280;73677;54.530;18.484;2023-11-19T11:53:26;100580.88;;;1.17;80.53
83697;BME280;73677;54.530;18.484;2023-11-19T11:55:57;100581.38;;;1.29;80.58
83697;BME280;73677;54.530;18.484;2023-11-19T11:58:42;100576.78;;;1.46;79.64
83697;BME280;73677;54.530;18.484;2023-11-19T12:01:15;100569.66;;;1.45;80.22
83697;BME280;73677;54.530;18.484;2023-11-19T12:03:55;100551.06;;;1.34;80.19
83697;BME280;73677;54.530;18.484;2023-11-19T12:06:27;100552.78;;;1.26;80.57
83697;BME280;73677;54.530;18.484;2023-11-19T12:08:59;100523.56;;;1.06;80.83
83697;BME280;73677;54.530;18.484;2023-11-19T12:11:29;100548.72;;;1.22;80.88
83697;BME280;73677;54.530;18.484;2023-11-19T12:14:02;100538.38;;;1.26;80.51
83697;BME280;73677;54.530;18.484;2023-11-19T12:16:35;100532.97;;;1.26;80.71
83697;BME280;73677;54.530;18.484;2023-11-19T12:19:06;100521.19;;;1.11;81.27
83697;BME280;73677;54.530;18.484;2023-11-19T12:21:36;100536.84;;;1.40;80.75
83697;BME280;73677;54.530;18.484;2023-11-19T12:24:06;100530.78;;;1.30;81.07
83697;BME280;73677;54.530;18.484;2023-11-19T12:26:38;100539.41;;;1.33;81.89
83697;BME280;73677;54.530;18.484;2023-11-19T12:29:09;100523.47;;;1.46;82.14
83697;BME280;73677;54.530;18.484;2023-11-19T12:31:44;100480.19;;;1.30;81.00
83697;BME280;73677;54.530;18.484;2023-11-19T12:34:13;100508.88;;;1.47;81.01
83697;BME280;73677;54.530;18.484;2023-11-19T12:36:43;100497.25;;;1.39;81.51
83697;BME280;73677;54.530;18.484;2023-11-19T12:39:11;100503.41;;;1.24;81.85
83697;BME280;73677;54.530;18.484;2023-11-19T12:41:52;100497.13;;;1.24;82.34
83697;BME280;73677;54.530;18.484;2023-11-19T12:44:23;100508.13;;;1.31;81.35
83697;BME280;73677;54.530;18.484;2023-11-19T12:47:03;100479.56;;;1.12;82.46
83697;BME280;73677;54.530;18.484;2023-11-19T12:49:32;100472.44;;;1.19;82.19
83697;BME280;73677;54.530;18.484;2023-11-19T12:52:02;100488.91;;;1.09;83.15
83697;BME280;73677;54.530;18.484;2023-11-19T12:54:32;100409.19;;;0.65;82.99
83697;BME280;73677;54.530;18.484;2023-11-19T12:57:04;100478.56;;;1.13;83.49
83697;BME280;73677;54.530;18.484;2023-11-19T12:59:35;100481.84;;;1.31;83.32
83697;BME280;73677;54.530;18.484;2023-11-19T13:02:05;100427.97;;;1.13;82.90
83697;BME280;73677;54.530;18.484;2023-11-19T13:04:34;100443.94;;;1.39;82.45
83697;BME280;73677;54.530;18.484;2023-11-19T13:07:04;100445.44;;;1.42;81.96
83697;BME280;73677;54.530;18.484;2023-11-19T13:09:33;100419.38;;;1.10;82.56
83697;BME280;73677;54.530;18.484;2023-11-19T13:12:13;100461.31;;;1.14;83.14